createdAt,value
2023-04-10T00:00:16.540Z,10.12
2023-04-10T00:05:38.934Z,8.92
2023-04-10T00:10:41.440Z,8.16
2023-04-10T00:15:43.974Z,8.22
2023-04-10T00:20:46.581Z,9.76
2023-04-10T00:25:49.386Z,10.93
2023-04-10T00:30:51.952Z,12.44
2023-04-10T00:35:54.505Z,11.92
2023-04-10T00:40:57.134Z,9.83
2023-04-10T00:45:59.837Z,8.57
2023-04-10T00:51:03.102Z,8.08
2023-04-10T00:56:06.969Z,9.57
2023-04-10T01:01:09.718Z,10.68
2023-04-10T01:06:32.639Z,11.32
2023-04-10T01:11:54.126Z,12.35
2023-04-10T01:17:02.205Z,11.00
2023-04-10T01:22:10.548Z,9.28
2023-04-10T01:27:41.129Z,8.23
2023-04-10T01:32:44.757Z,7.35
2023-04-10T01:37:50.621Z,7.86
2023-04-10T01:42:56.647Z,10.55
2023-04-10T01:48:00.203Z,11.79
2023-04-10T01:53:06.153Z,11.77
2023-04-10T01:58:09.400Z,9.62
2023-04-10T02:03:12.113Z,8.29
2023-04-10T02:08:40.498Z,8.01
2023-04-10T02:13:43.153Z,9.32
2023-04-10T02:18:47.252Z,10.98
2023-04-10T02:23:50.307Z,10.90
2023-04-10T02:28:52.809Z,8.87
2023-04-10T02:33:55.651Z,7.63
2023-04-10T02:38:58.355Z,7.94
2023-04-10T02:44:00.929Z,10.26
2023-04-10T02:49:03.489Z,10.88
2023-04-10T02:54:06.011Z,10.25
2023-04-10T02:59:08.572Z,8.45
2023-04-10T03:04:11.093Z,7.35
2023-04-10T03:09:13.760Z,7.46
2023-04-10T03:14:16.802Z,9.84
2023-04-10T03:19:19.390Z,11.29
2023-04-10T03:24:22.506Z,10.91
2023-04-10T03:29:25.010Z,8.75
2023-04-10T03:34:27.509Z,7.42
2023-04-10T03:39:30.281Z,7.54
2023-04-10T03:44:32.980Z,9.68
2023-04-10T03:49:35.662Z,11.31
2023-04-10T03:54:38.200Z,10.25
2023-04-10T03:59:40.725Z,8.15
2023-04-10T04:04:43.436Z,6.92
2023-04-10T04:09:46.084Z,6.87
2023-04-10T04:14:48.599Z,8.62
2023-04-10T04:19:51.181Z,9.63
2023-04-10T04:24:53.886Z,10.26
2023-04-10T04:29:56.423Z,9.92
2023-04-10T04:34:58.978Z,8.12
2023-04-10T04:40:02.164Z,7.00
2023-04-10T04:45:05.826Z,6.20
2023-04-10T04:50:09.110Z,6.78
2023-04-10T04:55:11.619Z,9.12
2023-04-10T05:00:14.536Z,10.07
2023-04-10T05:05:17.150Z,10.53
2023-04-10T05:10:20.415Z,9.21
2023-04-10T05:15:23.887Z,8.04
2023-04-10T05:20:27.163Z,7.23
2023-04-10T05:25:30.365Z,7.88
2023-04-10T05:30:32.894Z,10.87
2023-04-10T05:35:35.550Z,10.48
2023-04-10T05:40:38.185Z,8.76
2023-04-10T05:45:44.618Z,7.99
2023-04-10T05:50:47.321Z,7.51
2023-04-10T05:55:56.179Z,8.24
2023-04-10T06:00:58.768Z,10.87
2023-04-10T06:06:04.887Z,12.38
2023-04-10T06:11:07.425Z,11.53
2023-04-10T06:16:10.320Z,11.60
2023-04-10T06:21:13.068Z,12.60
2023-04-10T06:26:15.846Z,13.68
2023-04-10T06:31:21.978Z,13.59
2023-04-10T06:36:24.551Z,14.19
2023-04-10T06:41:27.079Z,14.62
2023-04-10T06:46:29.710Z,15.03
2023-04-10T06:51:32.510Z,15.69
2023-04-10T06:56:35.634Z,16.27
2023-04-10T07:01:38.209Z,16.72
2023-04-10T07:06:40.800Z,17.30
2023-04-10T07:11:43.398Z,18.05
2023-04-10T07:16:46.321Z,18.78
2023-04-10T07:21:52.027Z,19.30
2023-04-10T07:26:54.934Z,19.62
2023-04-10T07:31:57.510Z,19.87
2023-04-10T07:37:00.298Z,20.00
2023-04-10T07:42:02.856Z,20.10
2023-04-10T07:47:06.058Z,20.17
2023-04-10T07:52:08.969Z,19.95
2023-04-10T07:57:11.500Z,19.85
2023-04-10T08:02:14.410Z,19.58
2023-04-10T08:07:17.597Z,19.27
2023-04-10T08:12:20.932Z,18.79
2023-04-10T08:17:23.473Z,18.38
2023-04-10T08:22:26.146Z,18.14
2023-04-10T08:27:30.537Z,17.94
2023-04-10T08:32:33.804Z,17.91
2023-04-10T08:37:36.395Z,17.98
2023-04-10T08:42:39.235Z,17.96
2023-04-10T08:47:44.209Z,17.91
2023-04-10T08:52:49.846Z,18.08
2023-04-10T08:58:00.534Z,18.20
2023-04-10T09:03:04.914Z,18.15
2023-04-10T09:08:08.859Z,18.04
2023-04-10T09:13:11.459Z,17.90
2023-04-10T09:18:13.995Z,17.74
2023-04-10T09:23:21.337Z,17.61
2023-04-10T09:28:23.907Z,17.53
2023-04-10T09:33:27.883Z,17.38
2023-04-10T09:38:30.577Z,17.31
2023-04-10T09:43:33.087Z,17.27
2023-04-10T09:48:35.614Z,17.31
2023-04-10T09:53:50.390Z,17.39
2023-04-10T09:58:56.779Z,17.44
2023-04-10T10:04:02.191Z,17.31
2023-04-10T10:09:05.650Z,17.21
2023-04-10T10:14:18.622Z,17.11
2023-04-10T10:19:37.175Z,17.16
2023-04-10T10:24:45.828Z,17.29
2023-04-10T10:29:50.315Z,17.39
2023-04-10T10:34:53.680Z,17.47
2023-04-10T10:40:14.622Z,17.62
2023-04-10T10:45:20.837Z,17.75
2023-04-10T10:50:24.282Z,17.85
2023-04-10T10:55:28.144Z,17.86
2023-04-10T11:00:52.440Z,17.95
2023-04-10T11:06:12.790Z,18.08
2023-04-10T11:11:20.167Z,18.15
2023-04-10T11:16:40.906Z,18.13
2023-04-10T11:22:04.438Z,18.21
2023-04-10T11:27:07.784Z,18.27
2023-04-10T11:32:10.685Z,18.39
2023-04-10T11:37:23.853Z,18.36
2023-04-10T11:42:26.404Z,18.44
2023-04-10T11:47:29.325Z,18.57
2023-04-10T11:52:31.940Z,18.69
2023-04-10T11:57:34.957Z,18.72
2023-04-10T12:02:52.229Z,18.75
2023-04-10T12:07:55.650Z,18.61
2023-04-10T12:12:58.192Z,18.55
2023-04-10T12:18:03.237Z,18.66
2023-04-10T12:23:06.496Z,18.67
2023-04-10T12:28:09.318Z,18.80
2023-04-10T12:33:12.039Z,18.95
2023-04-10T12:38:14.770Z,18.96
2023-04-10T12:43:34.584Z,18.86
2023-04-10T12:48:37.204Z,18.86
2023-04-10T12:53:47.796Z,19.02
2023-04-10T12:59:06.587Z,19.21
2023-04-10T13:04:09.295Z,19.38
2023-04-10T13:09:16.022Z,19.43
2023-04-10T13:14:18.550Z,19.44
2023-04-10T13:19:21.138Z,19.50
2023-04-10T13:24:23.794Z,19.42
2023-04-10T13:29:26.361Z,19.26
2023-04-10T13:34:28.969Z,18.95
2023-04-10T13:39:31.860Z,18.58
2023-04-10T13:44:34.408Z,18.42
2023-04-10T13:49:37.814Z,18.28
2023-04-10T13:54:40.874Z,18.43
2023-04-10T13:59:43.446Z,18.53
2023-04-10T14:04:46.364Z,18.28
2023-04-10T14:09:49.136Z,18.09
2023-04-10T14:14:51.782Z,17.96
2023-04-10T14:19:54.347Z,18.04
2023-04-10T14:25:09.401Z,18.25
2023-04-10T14:30:15.465Z,18.40
2023-04-10T14:35:18.118Z,18.59
2023-04-10T14:40:20.905Z,18.74
2023-04-10T14:45:23.509Z,18.82
2023-04-10T14:50:26.544Z,18.94
2023-04-10T14:55:30.349Z,18.95
2023-04-10T15:00:33.262Z,18.89
2023-04-10T15:05:35.844Z,18.99
2023-04-10T15:10:38.377Z,19.11
2023-04-10T15:15:41.070Z,19.11
2023-04-10T15:20:43.853Z,19.04
2023-04-10T15:25:46.572Z,18.88
2023-04-10T15:30:50.149Z,18.71
2023-04-10T15:35:52.879Z,18.81
2023-04-10T15:40:55.924Z,19.17
2023-04-10T15:46:00.492Z,19.47
2023-04-10T15:51:05.419Z,19.47
2023-04-10T15:56:08.542Z,19.36
2023-04-10T16:01:11.226Z,19.08
2023-04-10T16:06:13.944Z,18.79
2023-04-10T16:11:16.514Z,18.67
2023-04-10T16:16:19.592Z,18.64
2023-04-10T16:21:23.549Z,18.56
2023-04-10T16:26:26.352Z,18.51
2023-04-10T16:31:28.952Z,18.59
2023-04-10T16:36:32.180Z,18.62
2023-04-10T16:41:35.100Z,18.30
2023-04-10T16:46:37.842Z,17.95
2023-04-10T16:51:40.825Z,17.66
2023-04-10T16:56:43.721Z,17.51
2023-04-10T17:01:46.342Z,17.52
2023-04-10T17:06:49.380Z,17.45
2023-04-10T17:11:53.420Z,17.08
2023-04-10T17:16:58.571Z,16.71
2023-04-10T17:22:01.396Z,16.34
2023-04-10T17:27:04.024Z,15.98
2023-04-10T17:32:08.185Z,15.66
2023-04-10T17:37:11.465Z,15.35
2023-04-10T17:42:13.972Z,15.08
2023-04-10T17:47:17.302Z,14.82
2023-04-10T17:52:19.851Z,14.58
2023-04-10T17:57:22.790Z,14.34
2023-04-10T18:02:25.695Z,14.11
2023-04-10T18:07:28.674Z,13.91
2023-04-10T18:12:31.616Z,13.74
2023-04-10T18:17:34.351Z,13.63
2023-04-10T18:22:37.070Z,13.49
2023-04-10T18:28:09.714Z,13.39
2023-04-10T18:33:20.220Z,13.34
2023-04-10T18:38:23.944Z,13.31
2023-04-10T18:43:27.479Z,13.30
2023-04-10T18:48:30.246Z,13.30
2023-04-10T18:53:33.372Z,13.27
2023-04-10T18:58:36.648Z,13.17
2023-04-10T19:03:40.682Z,13.02
2023-04-10T19:08:43.765Z,12.86
2023-04-10T19:13:46.657Z,12.72
2023-04-10T19:18:49.865Z,12.62
2023-04-10T19:23:53.737Z,12.51
2023-04-10T19:28:57.427Z,12.41
2023-04-10T19:34:02.511Z,12.33
2023-04-10T19:39:05.405Z,12.24
2023-04-10T19:44:09.808Z,12.12
2023-04-10T19:49:12.407Z,12.03
2023-04-10T19:54:16.159Z,11.95
2023-04-10T19:59:18.731Z,11.83
2023-04-10T20:04:21.871Z,11.73
2023-04-10T20:09:24.852Z,11.62
2023-04-10T20:14:29.499Z,11.50
2023-04-10T20:19:32.082Z,11.40
2023-04-10T20:24:34.643Z,11.31
2023-04-10T20:29:37.209Z,11.22
2023-04-10T20:34:39.779Z,11.13
2023-04-10T20:39:42.371Z,11.04
2023-04-10T20:44:45.012Z,10.95
2023-04-10T20:49:47.611Z,10.86
2023-04-10T20:54:50.179Z,10.77
2023-04-10T20:59:53.251Z,10.69
2023-04-10T21:04:55.901Z,10.60
2023-04-10T21:09:58.848Z,10.51
2023-04-10T21:15:01.551Z,10.41
2023-04-10T21:20:04.910Z,10.32
2023-04-10T21:25:08.253Z,10.23
2023-04-10T21:30:11.165Z,10.14
2023-04-10T21:35:13.730Z,10.07
2023-04-10T21:40:16.379Z,9.99
2023-04-10T21:45:18.928Z,9.91
2023-04-10T21:50:21.475Z,10.19
2023-04-10T21:55:24.037Z,12.12
2023-04-10T22:00:28.539Z,13.30
2023-04-10T22:05:31.843Z,14.10
2023-04-10T22:10:35.662Z,14.14
2023-04-10T22:15:38.183Z,12.74
2023-04-10T22:20:40.699Z,11.84
2023-04-10T22:25:43.223Z,11.20
2023-04-10T22:30:45.845Z,10.67
2023-04-10T22:35:48.996Z,10.20
2023-04-10T22:40:54.087Z,9.85
2023-04-10T22:45:56.646Z,10.18
2023-04-10T22:50:59.273Z,11.99
2023-04-10T22:56:05.525Z,13.01
2023-04-10T23:01:09.439Z,13.58
2023-04-10T23:06:12.042Z,13.38
2023-04-10T23:11:14.558Z,11.95
2023-04-10T23:16:17.164Z,11.02
2023-04-10T23:21:20.368Z,10.35
2023-04-10T23:26:23.190Z,9.78
2023-04-10T23:31:25.775Z,10.41
2023-04-10T23:36:28.509Z,12.63
2023-04-10T23:41:32.448Z,13.16
2023-04-10T23:46:35.004Z,13.47
2023-04-10T23:51:37.518Z,13.68
2023-04-10T23:56:40.795Z,13.18
